createdAt,value
2017-06-09T00:01:42.443Z,3.10
2017-06-09T00:04:08.886Z,2.55
2017-06-09T00:06:35.315Z,2.90
2017-06-09T00:09:02.602Z,3.00
2017-06-09T00:11:29.016Z,2.90
2017-06-09T00:13:55.444Z,3.10
2017-06-09T00:16:21.896Z,3.40
2017-06-09T00:18:48.348Z,3.10
2017-06-09T00:21:14.886Z,3.20
2017-06-09T00:23:41.328Z,2.60
2017-06-09T00:26:08.842Z,2.70
2017-06-09T00:28:35.271Z,3.00
2017-06-09T00:31:03.138Z,2.83
2017-06-09T00:33:29.558Z,2.97
2017-06-09T00:35:55.977Z,2.95
2017-06-09T00:38:22.402Z,3.03
2017-06-09T00:40:50.111Z,2.90
2017-06-09T00:43:16.670Z,3.00
2017-06-09T00:45:43.101Z,2.87
2017-06-09T00:48:10.033Z,2.90
2017-06-09T00:50:36.469Z,3.10
2017-06-09T00:53:02.904Z,3.15
2017-06-09T00:55:29.323Z,2.90
2017-06-09T00:57:55.761Z,3.12
2017-06-09T01:00:22.235Z,3.13
2017-06-09T01:02:48.786Z,2.97
2017-06-09T01:05:15.227Z,3.10
2017-06-09T01:07:41.745Z,2.90
2017-06-09T01:10:08.665Z,3.30
2017-06-09T01:12:35.108Z,3.20
2017-06-09T01:15:01.540Z,3.05
2017-06-09T01:17:28.080Z,3.20
2017-06-09T01:19:54.509Z,3.03
2017-06-09T01:22:21.408Z,3.50
2017-06-09T01:24:47.815Z,3.30
2017-06-09T01:27:14.255Z,3.17
2017-06-09T01:29:40.717Z,3.20
2017-06-09T01:32:07.238Z,3.10
2017-06-09T01:34:33.781Z,3.40
2017-06-09T01:37:00.258Z,3.50
2017-06-09T01:39:26.849Z,3.22
2017-06-09T01:41:53.289Z,3.00
2017-06-09T01:44:19.765Z,3.20
2017-06-09T01:46:46.205Z,2.85
2017-06-09T01:49:12.714Z,3.30
2017-06-09T01:51:40.187Z,3.10
2017-06-09T01:54:07.947Z,3.10
2017-06-09T01:56:34.446Z,3.05
2017-06-09T01:59:00.881Z,3.33
2017-06-09T02:01:28.086Z,3.50
2017-06-09T02:03:54.518Z,3.05
2017-06-09T02:06:21.682Z,3.15
2017-06-09T02:08:48.974Z,3.10
2017-06-09T02:11:15.444Z,3.10
2017-06-09T02:13:41.876Z,3.10
2017-06-09T02:16:09.049Z,3.30
2017-06-09T02:18:36.212Z,3.10
2017-06-09T02:21:03.380Z,3.10
2017-06-09T02:23:30.539Z,3.22
2017-06-09T02:25:57.029Z,3.28
2017-06-09T02:28:23.467Z,3.10
2017-06-09T02:30:50.637Z,2.90
2017-06-09T02:33:17.797Z,2.80
2017-06-09T02:35:44.250Z,3.00
2017-06-09T02:38:10.701Z,3.33
2017-06-09T02:40:37.134Z,3.60
2017-06-09T02:43:03.581Z,3.42
2017-06-09T02:45:31.044Z,3.20
2017-06-09T02:47:57.613Z,3.53
2017-06-09T02:50:24.253Z,3.53
2017-06-09T02:52:50.695Z,3.17
2017-06-09T02:55:17.861Z,3.70
2017-06-09T02:57:45.041Z,3.30
2017-06-09T03:00:12.550Z,3.80
2017-06-09T03:02:38.998Z,3.30
2017-06-09T03:05:05.554Z,3.55
2017-06-09T03:07:32.014Z,3.47
2017-06-09T03:09:58.558Z,3.92
2017-06-09T03:12:25.120Z,3.50
2017-06-09T03:14:51.879Z,3.42
2017-06-09T03:17:18.303Z,3.50
2017-06-09T03:19:44.755Z,3.25
2017-06-09T03:22:11.665Z,3.40
2017-06-09T03:24:38.097Z,3.60
2017-06-09T03:27:05.387Z,3.08
2017-06-09T03:29:31.813Z,3.45
2017-06-09T03:32:04.281Z,3.80
2017-06-09T03:34:30.737Z,3.67
2017-06-09T03:36:57.189Z,3.30
2017-06-09T03:39:23.637Z,3.20
2017-06-09T03:41:50.623Z,3.83
2017-06-09T03:44:17.068Z,3.60
2017-06-09T03:46:43.591Z,3.67
2017-06-09T03:49:10.456Z,3.67
2017-06-09T03:51:36.891Z,3.62
2017-06-09T03:54:04.110Z,3.72
2017-06-09T03:56:30.637Z,3.77
2017-06-09T03:58:57.098Z,3.80
2017-06-09T04:01:23.530Z,3.60
2017-06-09T04:03:50.712Z,3.30
2017-06-09T04:06:17.888Z,3.50
2017-06-09T04:08:44.332Z,3.00
2017-06-09T04:11:11.647Z,3.33
2017-06-09T04:13:38.178Z,3.17
2017-06-09T04:16:04.612Z,4.00
2017-06-09T04:18:31.408Z,3.37
2017-06-09T04:20:58.383Z,3.17
2017-06-09T04:23:24.849Z,3.70
2017-06-09T04:25:51.288Z,3.20
2017-06-09T04:28:17.959Z,3.28
2017-06-09T04:30:44.699Z,4.07
2017-06-09T04:33:11.409Z,6.65
2017-06-09T04:35:37.919Z,4.15
2017-06-09T04:38:04.609Z,3.22
2017-06-09T04:40:31.032Z,3.70
2017-06-09T04:42:57.512Z,4.20
2017-06-09T04:45:23.952Z,3.12
2017-06-09T04:47:50.652Z,2.95
2017-06-09T04:50:17.120Z,3.25
2017-06-09T04:52:43.542Z,2.70
2017-06-09T04:55:09.986Z,3.00
2017-06-09T04:57:36.535Z,3.30
2017-06-09T05:00:03.014Z,3.78
2017-06-09T05:02:29.785Z,3.00
2017-06-09T05:04:56.304Z,3.25
2017-06-09T05:07:22.785Z,3.40
2017-06-09T05:09:49.419Z,4.03
2017-06-09T05:12:15.855Z,2.80
2017-06-09T05:14:42.341Z,2.30
2017-06-09T05:17:08.812Z,2.08
2017-06-09T05:19:35.265Z,2.10
2017-06-09T05:22:01.812Z,2.10
2017-06-09T05:24:29.119Z,2.20
2017-06-09T05:26:55.626Z,2.20
2017-06-09T05:29:38.073Z,2.40
2017-06-09T05:32:04.573Z,2.20
2017-06-09T05:34:31.048Z,2.80
2017-06-09T05:36:57.509Z,2.40
2017-06-09T05:39:24.716Z,2.70
2017-06-09T05:41:51.159Z,2.30
2017-06-09T05:44:17.588Z,2.30
2017-06-09T05:46:44.038Z,2.30
2017-06-09T05:49:10.629Z,2.10
2017-06-09T05:51:37.090Z,1.70
2017-06-09T05:54:03.555Z,1.70
2017-06-09T05:56:29.982Z,1.90
2017-06-09T05:58:56.861Z,1.60
2017-06-09T06:01:23.301Z,1.60
2017-06-09T06:03:49.975Z,1.70
2017-06-09T06:06:16.451Z,1.50
2017-06-09T06:08:42.989Z,1.60
2017-06-09T06:11:09.469Z,1.90
2017-06-09T06:13:36.004Z,1.80
2017-06-09T06:16:02.415Z,1.85
2017-06-09T06:18:28.845Z,1.70
2017-06-09T06:20:55.312Z,2.40
2017-06-09T06:23:21.757Z,2.00
2017-06-09T06:25:48.175Z,1.60
2017-06-09T06:28:14.981Z,1.70
2017-06-09T06:30:41.957Z,1.70
2017-06-09T06:33:08.475Z,1.50
2017-06-09T06:35:34.932Z,2.55
2017-06-09T06:38:01.351Z,1.90
2017-06-09T06:40:27.830Z,1.73
2017-06-09T06:42:54.991Z,1.73
2017-06-09T06:45:22.416Z,2.03
2017-06-09T06:47:48.890Z,1.98
2017-06-09T06:50:15.441Z,2.10
2017-06-09T06:52:41.878Z,1.90
2017-06-09T06:55:08.417Z,2.03
2017-06-09T06:57:34.856Z,2.20
2017-06-09T07:00:01.328Z,1.80
2017-06-09T07:02:28.018Z,1.90
2017-06-09T07:04:54.957Z,2.00
2017-06-09T07:07:21.396Z,1.90
2017-06-09T07:09:47.969Z,1.87
2017-06-09T07:12:14.868Z,1.95
2017-06-09T07:14:41.295Z,1.70
2017-06-09T07:17:07.787Z,1.70
2017-06-09T07:19:34.239Z,1.83
2017-06-09T07:22:00.681Z,1.80
2017-06-09T07:24:27.095Z,1.67
2017-06-09T07:26:54.277Z,1.60
2017-06-09T07:29:20.752Z,1.80
2017-06-09T07:31:47.357Z,1.62
2017-06-09T07:34:14.052Z,1.60
2017-06-09T07:36:40.531Z,1.70
2017-06-09T07:39:06.940Z,1.50
2017-06-09T07:41:33.452Z,1.70
2017-06-09T07:44:00.244Z,1.65
2017-06-09T07:46:26.717Z,2.00
2017-06-09T07:48:53.956Z,1.50
2017-06-09T07:51:20.414Z,1.80
2017-06-09T07:53:47.177Z,1.80
2017-06-09T07:56:13.642Z,1.52
2017-06-09T07:58:41.454Z,1.80
2017-06-09T08:01:08.681Z,1.48
2017-06-09T08:03:35.543Z,1.50
2017-06-09T08:06:01.968Z,1.50
2017-06-09T08:08:28.427Z,1.30
2017-06-09T08:10:55.583Z,1.70
2017-06-09T08:13:22.305Z,1.48
2017-06-09T08:15:48.763Z,1.70
2017-06-09T08:18:15.615Z,1.30
2017-06-09T08:20:42.034Z,1.80
2017-06-09T08:23:09.229Z,1.50
2017-06-09T08:25:35.657Z,1.60
2017-06-09T08:28:02.374Z,1.75
2017-06-09T08:30:28.817Z,1.60
2017-06-09T08:32:55.228Z,1.40
2017-06-09T08:35:21.709Z,1.50
2017-06-09T08:37:48.168Z,1.50
2017-06-09T08:40:14.676Z,1.52
2017-06-09T08:45:34.266Z,1.58
2017-06-09T08:48:00.890Z,1.60
2017-06-09T08:50:27.546Z,1.40
2017-06-09T08:52:54.025Z,1.55
2017-06-09T08:55:20.433Z,1.50
2017-06-09T08:57:46.902Z,1.65
2017-06-09T09:00:13.476Z,1.60
2017-06-09T09:02:40.689Z,1.60
2017-06-09T09:05:08.883Z,1.60
2017-06-09T09:07:35.467Z,1.50
2017-06-09T09:10:01.955Z,1.40
2017-06-09T09:12:28.414Z,1.40
2017-06-09T09:14:54.968Z,1.40
2017-06-09T09:17:21.529Z,1.40
2017-06-09T09:19:47.995Z,1.70
2017-06-09T09:22:14.509Z,1.40
2017-06-09T09:24:40.948Z,1.50
2017-06-09T09:27:07.385Z,1.40
2017-06-09T09:29:33.812Z,1.50
2017-06-09T09:32:00.315Z,1.40
2017-06-09T09:34:27.528Z,1.60
2017-06-09T09:36:54.426Z,1.40
2017-06-09T09:39:20.860Z,1.40
2017-06-09T09:41:47.338Z,3.70
2017-06-09T09:44:14.113Z,1.30
2017-06-09T09:46:40.549Z,1.23
2017-06-09T09:49:06.983Z,1.50
2017-06-09T09:51:34.141Z,1.50
2017-06-09T09:54:01.139Z,1.40
2017-06-09T09:56:27.797Z,1.30
2017-06-09T09:58:54.294Z,1.10
2017-06-09T10:01:20.749Z,1.40
2017-06-09T10:03:47.210Z,1.55
2017-06-09T10:06:30.715Z,1.50
2017-06-09T10:08:57.500Z,1.55
2017-06-09T10:11:23.928Z,1.30
2017-06-09T10:13:50.610Z,1.33
2017-06-09T10:16:17.134Z,1.30
2017-06-09T10:18:43.659Z,1.25
2017-06-09T10:21:10.862Z,1.20
2017-06-09T10:23:38.069Z,1.30
2017-06-09T10:26:04.527Z,1.50
2017-06-09T10:28:30.967Z,1.23
2017-06-09T10:30:57.814Z,1.30
2017-06-09T10:33:24.316Z,1.30
2017-06-09T10:35:50.831Z,1.30
2017-06-09T10:38:17.489Z,1.37
2017-06-09T10:40:44.047Z,1.60
2017-06-09T10:43:10.670Z,1.60
2017-06-09T10:45:37.160Z,1.50
2017-06-09T10:48:03.609Z,19.73
2017-06-09T10:50:30.485Z,2.20
2017-06-09T10:52:57.792Z,1.70
2017-06-09T10:55:24.317Z,1.80
2017-06-09T10:57:50.755Z,2.00
2017-06-09T11:00:17.235Z,1.85
2017-06-09T11:02:43.705Z,2.30
2017-06-09T11:05:10.178Z,2.30
2017-06-09T11:07:36.738Z,2.05
2017-06-09T11:10:03.291Z,1.90
2017-06-09T11:12:30.046Z,2.10
2017-06-09T11:14:56.510Z,2.15
2017-06-09T11:17:22.976Z,1.92
2017-06-09T11:19:49.455Z,2.10
2017-06-09T11:22:15.924Z,2.10
2017-06-09T11:24:42.751Z,2.08
2017-06-09T11:27:10.327Z,2.10
2017-06-09T11:29:36.929Z,2.42
2017-06-09T11:32:03.500Z,2.33
2017-06-09T11:34:30.717Z,2.28
2017-06-09T11:36:57.897Z,2.50
2017-06-09T11:39:24.412Z,2.10
2017-06-09T11:41:51.569Z,2.10
2017-06-09T11:44:18.205Z,2.00
2017-06-09T11:46:44.677Z,2.10
2017-06-09T11:49:11.268Z,2.10
2017-06-09T11:51:38.046Z,2.30
2017-06-09T11:54:04.559Z,1.90
2017-06-09T11:56:31.855Z,2.28
2017-06-09T11:58:58.408Z,1.70
2017-06-09T12:01:25.306Z,2.10
2017-06-09T12:03:52.144Z,1.83
2017-06-09T12:06:19.057Z,2.00
2017-06-09T12:08:46.330Z,1.90
2017-06-09T12:11:13.418Z,1.90
2017-06-09T12:13:39.864Z,1.90
2017-06-09T12:16:07.114Z,1.87
2017-06-09T12:18:33.544Z,1.90
2017-06-09T12:20:59.993Z,1.90
2017-06-09T12:23:26.432Z,1.75
2017-06-09T12:25:53.730Z,1.70
2017-06-09T12:28:20.902Z,1.50
2017-06-09T12:30:47.458Z,2.20
2017-06-09T12:33:13.890Z,2.00
2017-06-09T12:35:40.338Z,1.73
2017-06-09T12:38:07.236Z,2.08
2017-06-09T12:40:33.745Z,1.70
2017-06-09T12:43:01.069Z,2.10
2017-06-09T12:45:27.535Z,1.98
2017-06-09T12:47:54.009Z,1.98
2017-06-09T12:50:20.514Z,2.00
2017-06-09T12:52:46.970Z,1.87
2017-06-09T12:55:14.072Z,1.60
2017-06-09T12:57:40.702Z,1.80
2017-06-09T13:00:07.406Z,1.73
2017-06-09T13:02:33.822Z,1.60
2017-06-09T13:05:00.514Z,1.50
2017-06-09T13:07:27.085Z,1.48
2017-06-09T13:09:53.620Z,1.40
2017-06-09T13:12:20.037Z,1.30
2017-06-09T13:14:46.764Z,1.50
2017-06-09T13:17:13.224Z,1.50
2017-06-09T13:19:39.751Z,1.48
2017-06-09T13:22:06.548Z,1.60
2017-06-09T13:24:32.995Z,1.50
2017-06-09T13:26:59.634Z,1.62
2017-06-09T13:29:26.097Z,1.75
2017-06-09T13:31:52.597Z,1.90
2017-06-09T13:34:19.049Z,2.10
2017-06-09T13:36:45.533Z,1.60
2017-06-09T13:39:12.017Z,1.70
2017-06-09T13:41:38.694Z,1.80
2017-06-09T13:44:05.335Z,1.85
2017-06-09T13:46:31.755Z,1.55
2017-06-09T13:48:59.064Z,1.55
2017-06-09T13:51:25.524Z,1.80
2017-06-09T13:54:06.869Z,1.67
2017-06-09T13:56:33.298Z,1.65
2017-06-09T13:58:59.712Z,1.52
2017-06-09T14:01:26.991Z,1.60
2017-06-09T14:03:53.756Z,1.70
2017-06-09T14:06:20.252Z,1.60
2017-06-09T14:08:46.747Z,1.40
2017-06-09T14:11:13.327Z,1.45
2017-06-09T14:13:39.792Z,1.50
2017-06-09T14:16:06.300Z,1.50
2017-06-09T14:18:33.495Z,1.30
2017-06-09T14:21:00.790Z,1.20
2017-06-09T14:23:27.381Z,4.18
2017-06-09T14:25:53.815Z,2.58
2017-06-09T14:28:20.361Z,2.55
2017-06-09T14:30:46.821Z,11.80
2017-06-09T14:33:13.297Z,6.80
2017-06-09T14:35:40.240Z,3.53
2017-06-09T14:38:21.968Z,3.33
2017-06-09T14:40:48.436Z,1.90
2017-06-09T14:43:14.952Z,2.05
2017-06-09T14:45:41.489Z,1.60
2017-06-09T14:48:08.764Z,1.70
2017-06-09T14:50:35.274Z,1.20
2017-06-09T14:53:02.643Z,1.30
2017-06-09T14:55:29.844Z,1.40
2017-06-09T14:57:56.431Z,1.52
2017-06-09T15:00:22.946Z,1.20
2017-06-09T15:02:49.526Z,1.20
2017-06-09T15:05:17.096Z,1.40
2017-06-09T15:07:44.362Z,1.50
2017-06-09T15:10:10.855Z,1.50
2017-06-09T15:12:37.515Z,1.87
2017-06-09T15:15:03.989Z,1.40
2017-06-09T15:17:30.853Z,2.42
2017-06-09T15:19:58.014Z,2.30
2017-06-09T15:22:24.592Z,1.50
2017-06-09T15:24:51.387Z,1.50
2017-06-09T15:27:18.017Z,1.80
2017-06-09T15:29:44.986Z,3.80
2017-06-09T15:32:11.669Z,1.70
2017-06-09T15:34:38.198Z,1.58
2017-06-09T15:37:04.635Z,1.90
2017-06-09T15:39:31.794Z,1.50
2017-06-09T15:41:59.350Z,1.80
2017-06-09T15:44:26.218Z,1.40
2017-06-09T15:46:53.714Z,1.65
2017-06-09T15:49:20.515Z,1.60
2017-06-09T15:51:47.036Z,2.10
2017-06-09T15:54:13.631Z,1.70
2017-06-09T15:56:40.095Z,2.33
2017-06-09T15:59:06.780Z,2.20
2017-06-09T16:01:34.004Z,2.30
2017-06-09T16:04:00.479Z,2.85
2017-06-09T16:06:26.907Z,13.88
2017-06-09T16:08:54.447Z,3.72
2017-06-09T16:11:20.979Z,1.92
2017-06-09T16:13:47.821Z,2.40
2017-06-09T16:16:14.535Z,2.20
2017-06-09T16:18:42.827Z,2.00
2017-06-09T16:21:09.300Z,1.80
2017-06-09T16:23:35.921Z,2.00
2017-06-09T16:26:02.393Z,2.00
2017-06-09T16:28:28.867Z,1.80
2017-06-09T16:30:55.302Z,2.00
2017-06-09T16:33:21.723Z,2.30
2017-06-09T16:35:48.206Z,2.20
2017-06-09T16:38:14.638Z,2.80
2017-06-09T16:40:42.026Z,2.35
2017-06-09T16:43:08.506Z,2.40
2017-06-09T16:45:35.039Z,2.70
2017-06-09T16:48:01.707Z,2.50
2017-06-09T16:50:28.362Z,2.50
2017-06-09T16:52:54.833Z,2.60
2017-06-09T16:55:21.612Z,2.60
2017-06-09T16:57:48.123Z,2.50
2017-06-09T17:00:15.347Z,3.00
2017-06-09T17:02:41.812Z,2.90
2017-06-09T17:05:08.428Z,8.20
2017-06-09T17:07:34.889Z,3.10
2017-06-09T17:10:01.578Z,2.90
2017-06-09T17:12:28.350Z,3.30
2017-06-09T17:14:54.890Z,3.00
2017-06-09T17:17:21.345Z,2.72
2017-06-09T17:19:48.120Z,3.10
2017-06-09T17:22:14.728Z,3.08
2017-06-09T17:24:41.246Z,3.30
2017-06-09T17:27:07.758Z,3.20
2017-06-09T17:29:34.199Z,3.37
2017-06-09T17:32:00.688Z,3.20
2017-06-09T17:34:27.149Z,3.20
2017-06-09T17:36:53.690Z,3.12
2017-06-09T17:39:20.248Z,3.20
2017-06-09T17:41:47.357Z,3.30
2017-06-09T17:44:13.833Z,3.30
2017-06-09T17:46:42.479Z,3.30
2017-06-09T17:49:09.035Z,3.83
2017-06-09T17:51:35.508Z,3.55
2017-06-09T17:54:01.975Z,4.10
2017-06-09T17:56:28.505Z,3.62
2017-06-09T17:58:54.990Z,3.90
2017-06-09T18:01:21.444Z,3.87
2017-06-09T18:03:47.917Z,3.80
2017-06-09T18:06:14.339Z,4.07
2017-06-09T18:08:40.769Z,3.60
2017-06-09T18:11:07.956Z,3.80
2017-06-09T18:13:35.376Z,4.40
2017-06-09T18:16:01.892Z,4.03
2017-06-09T18:18:28.861Z,3.90
2017-06-09T18:20:55.296Z,4.68
2017-06-09T18:23:23.408Z,4.60
2017-06-09T18:25:49.849Z,4.30
2017-06-09T18:28:16.432Z,3.97
2017-06-09T18:30:43.203Z,4.43
2017-06-09T18:33:09.745Z,4.32
2017-06-09T18:35:36.400Z,4.20
2017-06-09T18:38:02.915Z,4.30
2017-06-09T18:40:29.438Z,4.50
2017-06-09T18:42:55.940Z,5.30
2017-06-09T18:45:23.492Z,5.80
2017-06-09T18:47:51.142Z,6.80
2017-06-09T18:50:17.699Z,7.90
2017-06-09T18:52:44.494Z,7.30
2017-06-09T18:55:10.975Z,7.90
2017-06-09T18:57:37.479Z,7.65
2017-06-09T19:00:04.035Z,7.30
2017-06-09T19:02:30.515Z,7.70
2017-06-09T19:04:57.308Z,7.70
2017-06-09T19:07:24.631Z,8.38
2017-06-09T19:09:51.097Z,8.00
2017-06-09T19:12:17.555Z,8.50
2017-06-09T19:14:44.255Z,8.40
2017-06-09T19:17:11.580Z,8.32
2017-06-09T19:19:38.138Z,8.40
2017-06-09T19:22:04.900Z,8.23
2017-06-09T19:24:31.954Z,8.85
2017-06-09T19:26:59.412Z,9.02
2017-06-09T19:29:26.134Z,8.40
2017-06-09T19:31:52.644Z,8.67
2017-06-09T19:34:19.719Z,8.97
2017-06-09T19:36:46.269Z,8.60
2017-06-09T19:39:13.542Z,7.55
2017-06-09T19:41:40.812Z,7.20
2017-06-09T19:44:08.037Z,7.30
2017-06-09T19:46:34.786Z,7.40
2017-06-09T19:49:01.405Z,7.30
2017-06-09T19:51:27.869Z,8.05
2017-06-09T19:53:54.353Z,7.60
2017-06-09T19:56:20.921Z,6.57
2017-06-09T19:58:47.376Z,5.70
2017-06-09T20:01:13.844Z,5.50
2017-06-09T20:03:40.385Z,5.60
2017-06-09T20:06:06.861Z,5.93
2017-06-09T20:08:33.396Z,5.60
2017-06-09T20:10:59.835Z,5.00
2017-06-09T20:13:27.128Z,4.60
2017-06-09T20:15:53.595Z,5.30
2017-06-09T20:18:20.084Z,5.15
2017-06-09T20:21:01.420Z,5.40
2017-06-09T20:25:05.033Z,5.55
2017-06-09T20:27:32.228Z,4.95
2017-06-09T20:29:58.682Z,4.07
2017-06-09T20:32:25.121Z,4.30
2017-06-09T20:34:52.384Z,4.65
2017-06-09T20:37:19.546Z,4.37
2017-06-09T20:39:46.713Z,4.40
2017-06-09T20:42:13.173Z,4.40
2017-06-09T20:44:39.786Z,3.90
2017-06-09T20:47:06.421Z,4.40
2017-06-09T20:49:32.909Z,3.78
2017-06-09T20:51:59.991Z,4.05
2017-06-09T20:54:26.505Z,3.55
2017-06-09T20:56:53.063Z,2.90
2017-06-09T20:59:19.503Z,2.53
2017-06-09T21:01:46.678Z,1.70
2017-06-09T21:04:14.519Z,1.60
2017-06-09T21:06:41.013Z,1.33
2017-06-09T21:09:07.466Z,1.20
2017-06-09T21:11:33.948Z,1.12
2017-06-09T21:14:01.180Z,1.00
2017-06-09T21:16:27.604Z,1.20
2017-06-09T21:18:54.092Z,1.10
2017-06-09T21:21:20.533Z,1.00
2017-06-09T21:23:46.964Z,1.02
2017-06-09T21:26:14.064Z,1.00
2017-06-09T21:28:40.573Z,1.20
2017-06-09T21:31:07.257Z,0.93
2017-06-09T21:33:33.742Z,0.90
2017-06-09T21:36:00.186Z,0.80
2017-06-09T21:38:27.113Z,1.02
2017-06-09T21:40:53.672Z,0.80
2017-06-09T21:43:20.734Z,0.80
2017-06-09T21:45:47.173Z,0.88
2017-06-09T21:48:13.758Z,0.88
2017-06-09T21:50:40.563Z,0.90
2017-06-09T21:53:07.080Z,0.80
2017-06-09T21:55:33.543Z,0.93
2017-06-09T21:57:59.986Z,0.80
2017-06-09T22:00:27.213Z,0.80
2017-06-09T22:02:53.730Z,0.80
2017-06-09T22:05:20.164Z,0.80
2017-06-09T22:07:47.333Z,0.90
2017-06-09T22:10:15.164Z,0.98
2017-06-09T22:12:41.620Z,0.70
2017-06-09T22:15:08.698Z,0.80
2017-06-09T22:17:35.454Z,0.80
2017-06-09T22:20:01.989Z,0.90
2017-06-09T22:22:28.430Z,0.80
2017-06-09T22:24:55.962Z,0.80
2017-06-09T22:27:22.389Z,0.77
2017-06-09T22:29:48.815Z,0.95
2017-06-09T22:32:15.996Z,0.90
2017-06-09T22:34:43.145Z,0.97
2017-06-09T22:37:09.591Z,1.00
2017-06-09T22:39:36.022Z,0.70
2017-06-09T22:42:02.435Z,1.00
2017-06-09T22:44:28.895Z,1.00
2017-06-09T22:46:55.339Z,0.82
2017-06-09T22:49:22.516Z,0.90
2017-06-09T22:51:49.687Z,0.90
2017-06-09T22:54:16.872Z,0.88
2017-06-09T22:56:43.300Z,0.90
2017-06-09T22:59:10.484Z,0.85
2017-06-09T23:01:37.648Z,0.77
2017-06-09T23:04:04.804Z,0.88
2017-06-09T23:06:32.002Z,0.90
2017-06-09T23:08:59.197Z,0.90
2017-06-09T23:11:26.151Z,0.80
2017-06-09T23:13:52.588Z,0.90
2017-06-09T23:16:19.753Z,0.80
2017-06-09T23:18:46.234Z,0.80
2017-06-09T23:21:12.792Z,0.90
2017-06-09T23:23:39.281Z,0.80
2017-06-09T23:26:05.794Z,1.00
2017-06-09T23:28:32.267Z,1.00
2017-06-09T23:31:18.731Z,0.80
2017-06-09T23:33:45.425Z,0.80
2017-06-09T23:36:13.699Z,0.90
2017-06-09T23:38:40.903Z,0.90
2017-06-09T23:41:07.456Z,1.10
2017-06-09T23:43:34.011Z,1.10
2017-06-09T23:46:00.478Z,1.10
2017-06-09T23:48:26.889Z,1.17
2017-06-09T23:50:54.096Z,1.00
2017-06-09T23:53:20.673Z,1.10
2017-06-09T23:55:47.108Z,1.02
2017-06-09T23:58:14.299Z,1.17
